createdAt,value
2022-07-26T00:00:22.691Z,1.92
2022-07-26T00:02:56.627Z,2.08
2022-07-26T00:05:27.908Z,2.15
2022-07-26T00:08:12.617Z,2.30
2022-07-26T00:10:56.823Z,2.10
2022-07-26T00:13:30.310Z,2.33
2022-07-26T00:16:09.057Z,2.05
2022-07-26T00:18:39.156Z,2.42
2022-07-26T00:21:09.848Z,2.45
2022-07-26T00:23:43.429Z,2.05
2022-07-26T00:28:44.931Z,2.20
2022-07-26T00:31:22.092Z,2.53
2022-07-26T00:33:57.320Z,2.38
2022-07-26T00:36:32.857Z,2.17
2022-07-26T00:41:48.663Z,2.20
2022-07-26T00:44:34.345Z,2.20
2022-07-26T00:47:11.602Z,2.47
2022-07-26T00:49:42.161Z,2.55
2022-07-26T00:52:12.566Z,2.47
2022-07-26T00:54:44.476Z,2.50
2022-07-26T00:57:15.860Z,2.53
2022-07-26T01:02:23.990Z,2.95
2022-07-26T01:04:55.501Z,3.15
2022-07-26T01:07:27.626Z,3.03
2022-07-26T01:09:56.139Z,2.83
2022-07-26T01:12:25.119Z,3.13
2022-07-26T01:14:56.319Z,2.78
2022-07-26T01:17:28.145Z,2.65
2022-07-26T01:19:57.698Z,2.53
2022-07-26T01:22:35.446Z,2.72
2022-07-26T01:25:13.647Z,2.40
2022-07-26T01:27:50.100Z,2.00
2022-07-26T01:30:24.028Z,2.67
2022-07-26T01:32:54.839Z,2.20
2022-07-26T01:35:29.160Z,2.90
2022-07-26T01:38:04.013Z,2.72
2022-07-26T01:40:48.652Z,2.25
2022-07-26T01:43:22.374Z,2.30
2022-07-26T01:46:00.975Z,2.80
2022-07-26T01:48:31.859Z,2.55
2022-07-26T01:53:51.165Z,2.58
2022-07-26T01:56:26.672Z,3.17
2022-07-26T01:59:02.069Z,2.95
2022-07-26T02:01:43.128Z,2.95
2022-07-26T02:04:39.409Z,3.28
2022-07-26T02:07:17.018Z,3.33
2022-07-26T02:09:54.116Z,3.35
2022-07-26T02:12:23.212Z,2.67
2022-07-26T02:14:57.620Z,2.50
2022-07-26T02:17:28.180Z,2.33
2022-07-26T02:20:07.846Z,2.78
2022-07-26T02:22:42.804Z,3.30
2022-07-26T02:25:16.971Z,3.30
2022-07-26T02:27:48.177Z,3.17
2022-07-26T02:30:22.179Z,2.85
2022-07-26T02:35:53.578Z,2.88
2022-07-26T02:38:25.925Z,2.78
2022-07-26T02:41:03.838Z,3.00
2022-07-26T02:43:38.426Z,3.15
2022-07-26T02:46:15.723Z,2.70
2022-07-26T02:48:48.494Z,2.85
2022-07-26T02:51:25.427Z,2.80
2022-07-26T02:53:55.892Z,2.65
2022-07-26T02:56:27.274Z,2.78
2022-07-26T02:58:58.986Z,3.22
2022-07-26T03:01:31.078Z,2.88
2022-07-26T03:04:14.070Z,2.70
2022-07-26T03:06:48.448Z,3.08
2022-07-26T03:09:28.389Z,2.70
2022-07-26T03:14:46.157Z,2.78
2022-07-26T03:17:27.130Z,2.95
2022-07-26T03:20:01.065Z,2.80
2022-07-26T03:22:38.395Z,3.35
2022-07-26T03:25:10.535Z,2.78
2022-07-26T03:27:44.060Z,2.55
2022-07-26T03:30:24.716Z,3.13
2022-07-26T03:33:12.555Z,3.05
2022-07-26T03:35:43.240Z,2.80
2022-07-26T03:38:15.151Z,2.95
2022-07-26T03:40:48.619Z,3.08
2022-07-26T03:43:23.371Z,2.67
2022-07-26T03:46:00.351Z,2.65
2022-07-26T03:48:31.929Z,3.08
2022-07-26T03:51:18.763Z,2.92
2022-07-26T03:53:47.332Z,2.75
2022-07-26T03:56:38.707Z,3.10
2022-07-26T03:59:10.800Z,2.58
2022-07-26T04:01:52.156Z,2.80
2022-07-26T04:04:30.559Z,3.03
2022-07-26T04:07:03.875Z,3.00
2022-07-26T04:09:35.003Z,2.70
2022-07-26T04:12:09.353Z,3.00
2022-07-26T04:14:42.795Z,2.97
2022-07-26T04:17:13.318Z,3.20
2022-07-26T04:19:48.629Z,3.05
2022-07-26T04:22:25.326Z,3.05
2022-07-26T04:24:56.422Z,3.58
2022-07-26T04:27:27.041Z,3.17
2022-07-26T04:30:15.477Z,2.75
2022-07-26T04:32:48.140Z,2.70
2022-07-26T04:35:18.045Z,3.03
2022-07-26T04:37:52.527Z,3.08
2022-07-26T04:40:24.177Z,3.22
2022-07-26T04:42:59.290Z,2.67
2022-07-26T04:45:31.411Z,2.83
2022-07-26T04:48:07.431Z,3.35
2022-07-26T04:50:55.615Z,2.88
2022-07-26T04:53:31.395Z,2.95
2022-07-26T04:56:06.155Z,2.85
2022-07-26T04:58:39.808Z,3.08
2022-07-26T05:01:16.777Z,2.85
2022-07-26T05:03:47.113Z,3.60
2022-07-26T05:06:32.000Z,3.20
2022-07-26T05:09:01.453Z,2.70
2022-07-26T05:11:45.580Z,2.50
2022-07-26T05:14:25.158Z,2.22
2022-07-26T05:17:00.335Z,2.00
2022-07-26T05:19:47.481Z,2.03
2022-07-26T05:22:20.674Z,2.30
2022-07-26T05:24:58.307Z,2.08
2022-07-26T05:27:32.099Z,2.38
2022-07-26T05:30:03.455Z,1.50
2022-07-26T05:35:17.323Z,2.30
2022-07-26T05:37:49.337Z,1.88
2022-07-26T05:40:21.321Z,1.48
2022-07-26T05:42:58.482Z,2.03
2022-07-26T05:45:28.572Z,2.10
2022-07-26T05:47:59.945Z,2.53
2022-07-26T05:50:31.874Z,1.65
2022-07-26T05:53:04.298Z,1.98
2022-07-26T05:55:32.531Z,1.88
2022-07-26T05:58:03.625Z,2.40
2022-07-26T06:00:34.014Z,2.05
2022-07-26T06:03:25.029Z,2.60
2022-07-26T06:06:15.231Z,2.05
2022-07-26T06:08:48.877Z,2.25
2022-07-26T06:11:33.166Z,1.98
2022-07-26T06:14:12.624Z,1.90
2022-07-26T06:16:44.638Z,1.90
2022-07-26T06:19:14.483Z,1.80
2022-07-26T06:21:50.309Z,1.80
2022-07-26T06:24:23.858Z,1.98
2022-07-26T06:27:04.573Z,1.42
2022-07-26T06:29:39.342Z,1.48
2022-07-26T06:32:10.276Z,1.73
2022-07-26T06:34:43.557Z,1.30
2022-07-26T06:37:25.984Z,1.30
2022-07-26T06:39:57.039Z,1.63
2022-07-26T06:42:26.284Z,1.52
2022-07-26T06:44:57.501Z,1.33
2022-07-26T06:47:32.011Z,1.20
2022-07-26T06:50:01.384Z,1.27
2022-07-26T06:52:33.053Z,1.50
2022-07-26T06:55:12.672Z,1.63
2022-07-26T06:57:50.413Z,1.73
2022-07-26T07:00:25.610Z,1.15
2022-07-26T07:02:59.517Z,1.35
2022-07-26T07:05:33.290Z,1.50
2022-07-26T07:08:10.777Z,1.10
2022-07-26T07:10:51.044Z,1.88
2022-07-26T07:13:27.701Z,1.55
2022-07-26T07:16:02.219Z,1.75
2022-07-26T07:18:42.441Z,1.52
2022-07-26T07:21:25.878Z,1.30
2022-07-26T07:24:03.374Z,1.40
2022-07-26T07:26:33.927Z,1.17
2022-07-26T07:29:15.045Z,1.35
2022-07-26T07:31:50.807Z,1.05
2022-07-26T07:34:24.106Z,1.30
2022-07-26T07:39:48.650Z,1.25
2022-07-26T07:42:25.460Z,1.30
2022-07-26T07:44:56.418Z,1.00
2022-07-26T07:47:29.079Z,1.60
2022-07-26T07:50:00.725Z,1.55
2022-07-26T07:52:34.594Z,1.25
2022-07-26T07:55:36.093Z,1.40
2022-07-26T07:57:59.426Z,1.35
2022-07-26T08:00:32.620Z,0.93
2022-07-26T08:03:02.104Z,1.17
2022-07-26T08:05:32.468Z,1.48
2022-07-26T08:08:05.357Z,1.67
2022-07-26T08:10:55.961Z,1.55
2022-07-26T08:13:28.122Z,1.30
2022-07-26T08:15:59.609Z,1.38
2022-07-26T08:18:45.255Z,1.35
2022-07-26T08:21:29.493Z,1.50
2022-07-26T08:24:04.236Z,1.10
2022-07-26T08:26:37.805Z,1.50
2022-07-26T08:29:08.309Z,1.23
2022-07-26T08:31:48.575Z,1.38
2022-07-26T08:34:34.432Z,1.35
2022-07-26T08:37:17.393Z,1.70
2022-07-26T08:39:56.842Z,1.80
2022-07-26T08:42:29.408Z,1.63
2022-07-26T08:47:37.741Z,1.33
2022-07-26T08:50:10.989Z,1.80
2022-07-26T08:52:42.901Z,1.67
2022-07-26T08:55:20.086Z,1.42
2022-07-26T08:58:03.343Z,1.02
2022-07-26T09:00:40.497Z,1.80
2022-07-26T09:03:28.465Z,1.50
2022-07-26T09:06:02.999Z,1.23
2022-07-26T09:08:43.723Z,1.38
2022-07-26T09:11:44.796Z,1.35
2022-07-26T09:14:15.025Z,1.50
2022-07-26T09:17:02.213Z,1.50
2022-07-26T09:19:39.637Z,1.58
2022-07-26T09:22:17.357Z,1.60
2022-07-26T09:24:50.873Z,1.45
2022-07-26T09:27:28.332Z,1.30
2022-07-26T09:30:10.073Z,1.35
2022-07-26T09:32:58.946Z,1.75
2022-07-26T09:35:50.442Z,1.30
2022-07-26T09:38:20.493Z,1.13
2022-07-26T09:40:51.832Z,1.90
2022-07-26T09:43:23.848Z,1.67
2022-07-26T09:46:14.031Z,1.50
2022-07-26T09:49:10.497Z,1.45
2022-07-26T09:51:47.937Z,2.30
2022-07-26T09:54:40.522Z,1.73
2022-07-26T09:57:17.720Z,1.45
2022-07-26T09:59:47.596Z,1.15
2022-07-26T10:02:23.828Z,1.50
2022-07-26T10:05:11.999Z,1.30
2022-07-26T10:07:55.449Z,1.50
2022-07-26T10:10:50.170Z,1.17
2022-07-26T10:13:33.346Z,0.93
2022-07-26T10:16:06.012Z,0.98
2022-07-26T10:18:45.608Z,1.02
2022-07-26T10:21:34.435Z,1.00
2022-07-26T10:24:12.228Z,1.02
2022-07-26T10:26:45.718Z,1.10
2022-07-26T10:29:34.382Z,0.80
2022-07-26T10:32:19.088Z,0.95
2022-07-26T10:34:50.824Z,1.38
2022-07-26T10:37:28.370Z,0.88
2022-07-26T10:40:23.797Z,1.10
2022-07-26T10:46:26.783Z,1.33
2022-07-26T10:49:12.999Z,1.15
2022-07-26T10:51:42.439Z,0.80
2022-07-26T10:54:22.125Z,0.85
2022-07-26T10:56:51.830Z,1.02
2022-07-26T10:59:55.443Z,0.80
2022-07-26T11:02:28.959Z,1.30
2022-07-26T11:05:04.864Z,1.08
2022-07-26T11:07:41.096Z,1.17
2022-07-26T11:10:14.222Z,1.30
2022-07-26T11:12:42.276Z,0.82
2022-07-26T11:15:26.573Z,1.75
2022-07-26T11:18:20.246Z,1.70
2022-07-26T11:20:56.963Z,1.52
2022-07-26T11:23:26.715Z,1.67
2022-07-26T11:26:26.080Z,1.10
2022-07-26T11:29:03.975Z,1.17
2022-07-26T11:31:59.881Z,1.15
2022-07-26T11:34:37.984Z,0.65
2022-07-26T11:37:09.868Z,0.93
2022-07-26T11:39:55.461Z,0.60
2022-07-26T11:42:29.161Z,1.02
2022-07-26T11:45:08.338Z,0.70
2022-07-26T11:47:39.161Z,0.75
2022-07-26T11:50:22.970Z,0.80
2022-07-26T11:53:01.700Z,0.85
2022-07-26T11:58:28.079Z,0.88
2022-07-26T12:01:00.627Z,0.88
2022-07-26T12:03:33.361Z,0.70
2022-07-26T12:06:19.916Z,1.05
2022-07-26T12:09:03.395Z,0.73
2022-07-26T12:11:51.304Z,0.60
2022-07-26T12:14:31.994Z,0.70
2022-07-26T12:17:20.120Z,0.52
2022-07-26T12:19:50.916Z,0.90
2022-07-26T12:22:27.118Z,0.75
2022-07-26T12:25:08.331Z,0.73
2022-07-26T12:27:59.164Z,0.75
2022-07-26T12:30:37.084Z,0.80
2022-07-26T12:33:08.181Z,0.90
2022-07-26T12:35:52.110Z,0.70
2022-07-26T12:38:40.109Z,0.77
2022-07-26T12:43:56.814Z,1.00
2022-07-26T12:46:28.020Z,0.90
2022-07-26T12:51:41.999Z,0.95
2022-07-26T12:54:15.870Z,0.65
2022-07-26T12:56:54.985Z,0.70
2022-07-26T12:59:44.795Z,0.75
2022-07-26T13:02:16.922Z,0.65
2022-07-26T13:04:50.376Z,0.60
2022-07-26T13:10:22.586Z,0.60
2022-07-26T13:12:50.415Z,0.70
2022-07-26T13:15:38.010Z,0.90
2022-07-26T13:18:13.363Z,0.60
2022-07-26T13:20:49.488Z,0.60
2022-07-26T13:23:26.679Z,0.80
2022-07-26T13:26:01.413Z,0.65
2022-07-26T13:28:45.230Z,0.70
2022-07-26T13:31:25.490Z,0.98
2022-07-26T13:34:03.354Z,1.00
2022-07-26T13:36:35.983Z,0.88
2022-07-26T13:39:10.113Z,1.15
2022-07-26T13:41:44.488Z,0.82
2022-07-26T13:44:19.442Z,1.00
2022-07-26T13:46:58.581Z,0.73
2022-07-26T13:49:33.086Z,0.80
2022-07-26T13:52:09.735Z,0.82
2022-07-26T13:54:44.800Z,0.80
2022-07-26T13:57:14.638Z,0.70
2022-07-26T13:59:53.308Z,0.40
2022-07-26T14:02:32.539Z,0.77
2022-07-26T14:05:03.767Z,0.70
2022-07-26T14:07:36.409Z,0.75
2022-07-26T14:10:08.091Z,0.50
2022-07-26T14:12:43.087Z,0.63
2022-07-26T14:15:21.985Z,0.70
2022-07-26T14:18:09.994Z,0.70
2022-07-26T14:20:40.701Z,0.65
2022-07-26T14:23:17.757Z,0.55
2022-07-26T14:25:52.972Z,0.75
2022-07-26T14:28:24.380Z,0.98
2022-07-26T14:31:03.337Z,0.55
2022-07-26T14:33:46.515Z,0.60
2022-07-26T14:36:15.682Z,0.75
2022-07-26T14:38:48.456Z,0.50
2022-07-26T14:41:16.681Z,0.63
2022-07-26T14:43:57.000Z,0.60
2022-07-26T14:46:37.740Z,0.90
2022-07-26T14:49:16.425Z,0.63
2022-07-26T14:51:44.881Z,0.82
2022-07-26T14:54:28.756Z,0.57
2022-07-26T14:57:03.659Z,0.80
2022-07-26T14:59:38.025Z,1.10
2022-07-26T15:02:08.614Z,0.80
2022-07-26T15:04:43.646Z,0.90
2022-07-26T15:07:17.894Z,0.60
2022-07-26T15:09:54.011Z,0.60
2022-07-26T15:12:33.803Z,1.00
2022-07-26T15:15:07.778Z,0.80
2022-07-26T15:17:44.690Z,0.70
2022-07-26T15:20:18.902Z,0.80
2022-07-26T15:22:53.392Z,0.90
2022-07-26T15:25:25.411Z,1.10
2022-07-26T15:27:54.877Z,0.77
2022-07-26T15:30:28.682Z,0.73
2022-07-26T15:33:10.036Z,0.75
2022-07-26T15:35:44.081Z,0.77
2022-07-26T15:38:18.264Z,0.80
2022-07-26T15:43:48.498Z,0.60
2022-07-26T15:46:20.336Z,0.75
2022-07-26T15:48:51.487Z,0.68
2022-07-26T15:51:26.817Z,0.70
2022-07-26T15:53:57.623Z,0.70
2022-07-26T15:56:36.974Z,0.88
2022-07-26T15:59:14.715Z,0.70
2022-07-26T16:01:45.822Z,0.88
2022-07-26T16:04:16.575Z,0.50
2022-07-26T16:06:47.984Z,1.30
2022-07-26T16:09:28.075Z,0.80
2022-07-26T16:12:04.102Z,0.77
2022-07-26T16:14:44.387Z,0.50
2022-07-26T16:17:18.409Z,0.70
2022-07-26T16:19:51.452Z,0.80
2022-07-26T16:22:28.061Z,0.60
2022-07-26T16:24:58.090Z,0.70
2022-07-26T16:27:32.303Z,0.70
2022-07-26T16:30:08.858Z,0.45
2022-07-26T16:32:46.688Z,0.50
2022-07-26T16:35:19.610Z,0.70
2022-07-26T16:37:57.197Z,0.68
2022-07-26T16:40:32.177Z,0.90
2022-07-26T16:43:12.164Z,0.63
2022-07-26T16:48:17.038Z,0.90
2022-07-26T16:50:53.682Z,0.80
2022-07-26T16:53:28.174Z,0.82
2022-07-26T16:55:59.989Z,0.70
2022-07-26T16:58:38.936Z,0.45
2022-07-26T17:01:10.045Z,0.68
2022-07-26T17:03:56.945Z,0.77
2022-07-26T17:06:26.844Z,0.60
2022-07-26T17:08:55.819Z,0.80
2022-07-26T17:11:27.667Z,0.50
2022-07-26T17:14:02.940Z,0.60
2022-07-26T17:16:37.724Z,0.80
2022-07-26T17:19:08.327Z,0.80
2022-07-26T17:24:27.188Z,0.57
2022-07-26T17:27:01.381Z,0.68
2022-07-26T17:29:31.096Z,0.82
2022-07-26T17:32:00.608Z,0.60
2022-07-26T17:34:29.626Z,0.88
2022-07-26T17:37:05.934Z,0.77
2022-07-26T17:39:52.221Z,0.50
2022-07-26T17:42:24.398Z,0.82
2022-07-26T17:44:55.165Z,1.02
2022-07-26T17:47:30.720Z,0.40
2022-07-26T17:53:00.657Z,0.65
2022-07-26T17:55:38.432Z,1.05
2022-07-26T17:58:12.250Z,0.80
2022-07-26T18:00:45.555Z,0.80
2022-07-26T18:03:16.025Z,0.75
2022-07-26T18:05:57.060Z,0.95
2022-07-26T18:08:35.627Z,0.77
2022-07-26T18:11:05.365Z,0.63
2022-07-26T18:13:38.623Z,0.50
2022-07-26T18:16:12.809Z,0.52
2022-07-26T18:21:35.559Z,0.80
2022-07-26T18:24:17.004Z,1.05
2022-07-26T18:26:51.666Z,0.68
2022-07-26T18:29:20.911Z,0.82
2022-07-26T18:31:51.897Z,0.77
2022-07-26T18:34:26.816Z,0.70
2022-07-26T18:37:00.562Z,0.85
2022-07-26T18:39:37.475Z,0.73
2022-07-26T18:42:18.263Z,0.50
2022-07-26T18:44:58.701Z,0.88
2022-07-26T18:47:39.022Z,0.83
2022-07-26T18:50:17.165Z,0.70
2022-07-26T18:53:05.477Z,0.90
2022-07-26T18:55:43.465Z,0.90
2022-07-26T18:58:33.268Z,0.50
2022-07-26T19:01:12.887Z,0.82
2022-07-26T19:03:43.526Z,0.75
2022-07-26T19:06:20.795Z,0.80
2022-07-26T19:08:57.626Z,0.80
2022-07-26T19:11:36.336Z,0.70
2022-07-26T19:14:17.088Z,0.70
2022-07-26T19:16:53.039Z,0.90
2022-07-26T19:19:23.619Z,0.88
2022-07-26T19:21:56.033Z,0.82
2022-07-26T19:24:28.584Z,1.20
2022-07-26T19:27:10.656Z,1.55
2022-07-26T19:29:44.759Z,1.20
2022-07-26T19:32:28.023Z,1.55
2022-07-26T19:35:03.061Z,0.70
2022-07-26T19:37:33.272Z,0.88
2022-07-26T19:40:06.770Z,0.90
2022-07-26T19:42:40.821Z,0.70
2022-07-26T19:45:19.769Z,0.80
2022-07-26T19:47:53.007Z,0.82
2022-07-26T19:50:29.106Z,0.75
2022-07-26T19:53:11.876Z,0.80
2022-07-26T19:55:42.982Z,0.70
2022-07-26T19:58:22.319Z,0.65
2022-07-26T20:01:02.289Z,0.65
2022-07-26T20:03:40.349Z,0.60
2022-07-26T20:06:15.262Z,0.90
2022-07-26T20:08:45.266Z,1.10
2022-07-26T20:11:20.545Z,0.80
2022-07-26T20:13:51.224Z,0.90
2022-07-26T20:16:36.323Z,0.82
2022-07-26T20:19:19.866Z,0.77
2022-07-26T20:21:52.234Z,0.80
2022-07-26T20:24:34.369Z,0.95
2022-07-26T20:27:19.677Z,0.57
2022-07-26T20:29:49.754Z,0.85
2022-07-26T20:32:26.923Z,1.13
2022-07-26T20:35:09.942Z,0.63
2022-07-26T20:37:41.146Z,0.60
2022-07-26T20:40:15.610Z,0.60
2022-07-26T20:42:50.086Z,0.60
2022-07-26T20:45:31.142Z,0.60
2022-07-26T20:48:04.764Z,0.90
2022-07-26T20:50:47.464Z,0.70
2022-07-26T20:53:21.662Z,0.57
2022-07-26T20:55:58.053Z,0.70
2022-07-26T20:58:32.180Z,0.98
2022-07-26T21:01:13.509Z,0.90
2022-07-26T21:03:43.900Z,0.60
2022-07-26T21:06:23.634Z,0.50
2022-07-26T21:09:09.787Z,0.75
2022-07-26T21:11:47.635Z,0.73
2022-07-26T21:14:21.641Z,0.60
2022-07-26T21:16:58.599Z,0.70
2022-07-26T21:19:29.782Z,0.60
2022-07-26T21:22:00.707Z,0.75
2022-07-26T21:24:28.979Z,0.57
2022-07-26T21:27:00.183Z,1.13
2022-07-26T21:29:30.089Z,0.90
2022-07-26T21:32:01.786Z,0.88
2022-07-26T21:34:40.298Z,0.68
2022-07-26T21:37:22.149Z,0.90
2022-07-26T21:39:52.565Z,0.55
2022-07-26T21:42:27.050Z,0.57
2022-07-26T21:45:03.706Z,0.77
2022-07-26T21:47:34.377Z,0.70
2022-07-26T21:50:19.201Z,1.00
2022-07-26T21:52:53.154Z,0.85
2022-07-26T21:55:30.980Z,1.02
2022-07-26T21:58:05.764Z,0.68
2022-07-26T22:00:39.794Z,0.98
2022-07-26T22:03:10.765Z,0.90
2022-07-26T22:05:47.317Z,0.90
2022-07-26T22:08:24.596Z,0.70
2022-07-26T22:11:00.816Z,1.27
2022-07-26T22:13:35.437Z,0.85
2022-07-26T22:16:09.781Z,0.88
2022-07-26T22:19:04.095Z,0.82
2022-07-26T22:21:39.976Z,0.77
2022-07-26T22:24:11.209Z,0.60
2022-07-26T22:26:46.092Z,1.00
2022-07-26T22:29:17.723Z,0.88
2022-07-26T22:31:58.767Z,0.82
2022-07-26T22:34:29.437Z,1.08
2022-07-26T22:37:08.714Z,0.75
2022-07-26T22:39:43.152Z,0.77
2022-07-26T22:42:16.093Z,0.82
2022-07-26T22:44:47.667Z,1.15
2022-07-26T22:47:24.359Z,0.90
2022-07-26T22:49:56.163Z,0.88
2022-07-26T22:52:27.271Z,0.57
2022-07-26T22:55:06.340Z,0.88
2022-07-26T22:57:43.536Z,0.95
2022-07-26T23:00:21.454Z,0.50
2022-07-26T23:02:55.374Z,0.73
2022-07-26T23:05:39.864Z,1.00
2022-07-26T23:11:14.685Z,1.00
2022-07-26T23:13:42.458Z,0.98
2022-07-26T23:16:42.804Z,0.73
2022-07-26T23:19:17.890Z,1.13
2022-07-26T23:22:01.963Z,1.00
2022-07-26T23:24:38.715Z,0.80
2022-07-26T23:27:24.758Z,0.80
2022-07-26T23:29:55.027Z,1.00
2022-07-26T23:32:26.761Z,0.85
2022-07-26T23:35:02.667Z,0.70
2022-07-26T23:37:39.072Z,0.73
2022-07-26T23:40:21.625Z,0.65
2022-07-26T23:42:58.194Z,0.75
2022-07-26T23:45:29.318Z,1.00
2022-07-26T23:47:59.425Z,0.65
2022-07-26T23:50:34.431Z,1.25
2022-07-26T23:53:12.429Z,1.10
2022-07-26T23:55:49.150Z,0.90
2022-07-26T23:58:20.932Z,0.90
